createdAt,value
2018-11-12T00:00:45.968Z,6.13
2018-11-12T00:03:17.781Z,6.10
2018-11-12T00:05:49.564Z,5.91
2018-11-12T00:08:21.567Z,5.74
2018-11-12T00:10:53.347Z,5.75
2018-11-12T00:13:25.195Z,5.74
2018-11-12T00:15:56.977Z,5.83
2018-11-12T00:18:28.855Z,5.77
2018-11-12T00:21:00.645Z,5.73
2018-11-12T00:23:32.475Z,5.61
2018-11-12T00:26:04.608Z,5.78
2018-11-12T00:28:41.073Z,5.83
2018-11-12T00:31:12.879Z,5.91
2018-11-12T00:33:44.694Z,5.85
2018-11-12T00:36:16.549Z,5.72
2018-11-12T00:38:48.394Z,5.63
2018-11-12T00:41:20.173Z,5.59
2018-11-12T00:43:51.998Z,5.63
2018-11-12T00:46:23.808Z,5.70
2018-11-12T00:48:55.696Z,5.54
2018-11-12T00:51:27.505Z,5.62
2018-11-12T00:53:59.305Z,5.35
2018-11-12T00:56:31.306Z,5.43
2018-11-12T00:59:03.139Z,5.62
2018-11-12T01:01:34.950Z,5.73
2018-11-12T01:04:07.170Z,5.54
2018-11-12T01:06:38.874Z,5.64
2018-11-12T01:09:12.480Z,5.73
2018-11-12T01:11:44.278Z,5.68
2018-11-12T01:14:16.120Z,5.58
2018-11-12T01:16:47.907Z,5.60
2018-11-12T01:19:19.744Z,5.81
2018-11-12T01:21:52.136Z,5.69
2018-11-12T01:24:23.943Z,5.59
2018-11-12T01:26:55.743Z,5.60
2018-11-12T01:29:27.561Z,5.70
2018-11-12T01:31:59.372Z,5.71
2018-11-12T01:34:31.174Z,5.75
2018-11-12T01:37:05.719Z,5.83
2018-11-12T01:39:37.660Z,5.65
2018-11-12T01:42:09.533Z,5.47
2018-11-12T01:44:41.305Z,5.43
2018-11-12T01:47:13.098Z,5.52
2018-11-12T01:49:44.941Z,5.48
2018-11-12T01:52:16.730Z,5.47
2018-11-12T01:54:48.548Z,5.58
2018-11-12T01:57:20.314Z,5.56
2018-11-12T01:59:52.116Z,5.63
2018-11-12T02:02:23.894Z,5.60
2018-11-12T02:04:55.833Z,5.57
2018-11-12T02:07:27.494Z,5.59
2018-11-12T02:09:59.344Z,5.44
2018-11-12T02:12:31.150Z,5.53
2018-11-12T02:15:02.976Z,5.44
2018-11-12T02:17:34.766Z,5.53
2018-11-12T02:20:07.873Z,5.42
2018-11-12T02:22:39.661Z,5.46
2018-11-12T02:25:12.384Z,5.42
2018-11-12T02:27:44.178Z,5.34
2018-11-12T02:30:36.181Z,5.33
2018-11-12T02:33:07.948Z,5.33
2018-11-12T02:35:39.737Z,5.31
2018-11-12T02:38:11.702Z,5.11
2018-11-12T02:40:43.590Z,5.00
2018-11-12T02:43:15.381Z,4.99
2018-11-12T02:45:47.200Z,5.11
2018-11-12T02:48:18.988Z,5.21
2018-11-12T02:50:50.805Z,5.28
2018-11-12T02:53:22.588Z,4.99
2018-11-12T02:55:54.518Z,4.90
2018-11-12T02:58:26.303Z,5.08
2018-11-12T03:01:00.781Z,5.13
2018-11-12T03:03:32.589Z,5.11
2018-11-12T03:06:04.416Z,5.07
2018-11-12T03:08:36.197Z,5.00
2018-11-12T03:11:07.983Z,5.01
2018-11-12T03:13:39.781Z,4.98
2018-11-12T03:16:11.754Z,5.06
2018-11-12T03:18:43.612Z,5.02
2018-11-12T03:21:15.435Z,4.95
2018-11-12T03:23:47.228Z,5.03
2018-11-12T03:26:19.038Z,5.03
2018-11-12T03:28:50.843Z,4.97
2018-11-12T03:31:22.825Z,5.11
2018-11-12T03:33:54.623Z,5.10
2018-11-12T03:36:26.452Z,5.04
2018-11-12T03:38:58.229Z,4.83
2018-11-12T03:41:30.042Z,4.71
2018-11-12T03:44:01.839Z,4.95
2018-11-12T03:46:33.676Z,4.77
2018-11-12T03:49:06.256Z,4.74
2018-11-12T03:51:38.080Z,4.81
2018-11-12T03:54:09.895Z,4.63
2018-11-12T03:56:41.736Z,4.68
2018-11-12T03:59:13.511Z,4.75
2018-11-12T04:01:46.150Z,4.77
2018-11-12T04:04:18.469Z,4.50
2018-11-12T04:06:50.307Z,4.62
2018-11-12T04:09:22.122Z,4.59
2018-11-12T04:11:54.073Z,4.42
2018-11-12T04:14:25.881Z,4.63
2018-11-12T04:16:57.666Z,4.51
2018-11-12T04:19:29.477Z,4.47
2018-11-12T04:22:01.304Z,4.44
2018-11-12T04:24:33.163Z,4.42
2018-11-12T04:27:04.977Z,4.41
2018-11-12T04:29:36.754Z,4.28
2018-11-12T04:32:08.600Z,4.32
2018-11-12T04:34:40.377Z,4.31
2018-11-12T04:37:12.218Z,4.20
2018-11-12T04:39:43.986Z,4.42
2018-11-12T04:42:15.819Z,4.37
2018-11-12T04:44:47.587Z,4.63
2018-11-12T04:47:19.395Z,4.70
2018-11-12T04:49:51.196Z,4.78
2018-11-12T04:52:23.014Z,4.58
2018-11-12T04:57:26.859Z,4.54
2018-11-12T04:59:58.711Z,4.47
2018-11-12T05:02:31.383Z,4.43
2018-11-12T05:05:03.184Z,4.40
2018-11-12T05:07:35.092Z,4.50
2018-11-12T05:10:09.192Z,4.78
2018-11-12T05:12:41.689Z,4.84
2018-11-12T05:15:16.175Z,4.84
2018-11-12T05:17:48.019Z,4.73
2018-11-12T05:20:21.329Z,4.57
2018-11-12T05:22:53.267Z,4.69
2018-11-12T05:25:25.078Z,4.74
2018-11-12T05:27:57.002Z,4.76
2018-11-12T05:30:29.805Z,4.66
2018-11-12T05:33:01.713Z,4.58
2018-11-12T05:35:33.581Z,4.51
2018-11-12T05:38:05.626Z,4.42
2018-11-12T05:40:37.434Z,4.38
2018-11-12T05:43:09.255Z,4.49
2018-11-12T05:45:41.034Z,4.33
2018-11-12T05:48:12.920Z,4.35
2018-11-12T05:50:44.730Z,4.40
2018-11-12T05:53:16.605Z,4.32
2018-11-12T05:55:48.457Z,4.21
2018-11-12T05:58:20.279Z,4.20
2018-11-12T06:00:52.097Z,3.80
2018-11-12T06:03:23.991Z,3.96
2018-11-12T06:05:55.848Z,4.23
2018-11-12T06:08:27.669Z,4.12
2018-11-12T06:10:59.539Z,3.91
2018-11-12T06:13:31.457Z,3.96
2018-11-12T06:16:03.267Z,4.08
2018-11-12T06:18:35.148Z,4.04
2018-11-12T06:21:07.298Z,4.19
2018-11-12T06:23:39.095Z,4.10
2018-11-12T06:26:10.909Z,3.89
2018-11-12T06:28:42.745Z,3.89
2018-11-12T06:31:14.674Z,3.99
2018-11-12T06:33:46.414Z,4.07
2018-11-12T06:36:18.325Z,4.04
2018-11-12T06:38:50.277Z,4.12
2018-11-12T06:41:22.060Z,4.29
2018-11-12T06:43:53.959Z,4.43
2018-11-12T06:46:25.808Z,4.51
2018-11-12T06:48:57.760Z,4.35
2018-11-12T06:51:29.720Z,4.15
2018-11-12T06:54:01.625Z,3.84
2018-11-12T06:56:33.543Z,3.70
2018-11-12T06:59:05.351Z,3.79
2018-11-12T07:01:37.323Z,4.00
2018-11-12T07:04:09.152Z,4.42
2018-11-12T07:06:40.957Z,4.62
2018-11-12T07:09:13.909Z,4.69
2018-11-12T07:11:45.723Z,4.62
2018-11-12T07:14:20.683Z,4.80
2018-11-12T07:17:10.206Z,4.96
2018-11-12T07:19:44.941Z,5.07
2018-11-12T07:22:16.806Z,5.32
2018-11-12T07:24:48.638Z,5.47
2018-11-12T07:27:20.458Z,5.26
2018-11-12T07:29:52.295Z,5.79
2018-11-12T07:32:24.097Z,6.15
2018-11-12T07:34:55.904Z,6.55
2018-11-12T07:37:27.734Z,6.80
2018-11-12T07:39:59.698Z,6.76
2018-11-12T07:42:31.655Z,7.00
2018-11-12T07:45:03.599Z,6.84
2018-11-12T07:47:35.571Z,7.30
2018-11-12T07:50:13.867Z,7.15
2018-11-12T07:52:45.851Z,7.44
2018-11-12T07:55:22.760Z,8.04
2018-11-12T07:57:55.512Z,8.03
2018-11-12T08:00:28.727Z,8.03
2018-11-12T08:03:07.828Z,8.25
2018-11-12T08:05:40.051Z,8.33
2018-11-12T08:08:12.077Z,8.65
2018-11-12T08:10:43.900Z,9.01
2018-11-12T08:13:15.697Z,9.11
2018-11-12T08:15:47.543Z,9.31
2018-11-12T08:18:19.416Z,9.48
2018-11-12T08:20:51.252Z,9.61
2018-11-12T08:23:23.171Z,10.02
2018-11-12T08:25:55.126Z,9.76
2018-11-12T08:28:26.868Z,9.66
2018-11-12T08:30:58.749Z,9.98
2018-11-12T08:33:30.648Z,10.19
2018-11-12T08:36:02.701Z,10.29
2018-11-12T08:38:34.398Z,10.26
2018-11-12T08:41:06.416Z,10.52
2018-11-12T08:43:38.185Z,10.75
2018-11-12T08:46:10.093Z,10.91
2018-11-12T08:48:42.090Z,11.05
2018-11-12T08:51:13.872Z,11.42
2018-11-12T08:53:45.735Z,11.68
2018-11-12T08:56:17.650Z,11.88
2018-11-12T08:58:52.673Z,11.92
2018-11-12T09:01:24.669Z,12.04
2018-11-12T09:03:56.505Z,12.14
2018-11-12T09:06:28.337Z,12.43
2018-11-12T09:09:00.168Z,12.65
2018-11-12T09:11:32.059Z,12.79
2018-11-12T09:14:04.187Z,12.89
2018-11-12T09:16:36.148Z,13.09
2018-11-12T09:19:08.541Z,13.57
2018-11-12T09:21:40.543Z,13.55
2018-11-12T09:24:12.401Z,13.46
2018-11-12T09:26:44.565Z,13.67
2018-11-12T09:29:16.442Z,13.68
2018-11-12T09:31:48.369Z,13.74
2018-11-12T09:34:20.314Z,13.90
2018-11-12T09:36:52.239Z,14.03
2018-11-12T09:39:24.109Z,14.12
2018-11-12T09:41:55.979Z,14.29
2018-11-12T09:44:27.936Z,14.42
2018-11-12T09:46:59.769Z,14.62
2018-11-12T09:49:31.683Z,14.72
2018-11-12T09:52:03.791Z,14.75
2018-11-12T09:54:35.858Z,14.81
2018-11-12T09:57:07.662Z,15.33
2018-11-12T09:59:39.449Z,15.11
2018-11-12T10:02:11.985Z,14.98
2018-11-12T10:04:44.639Z,15.06
2018-11-12T10:07:16.386Z,14.84
2018-11-12T10:09:49.996Z,15.04
2018-11-12T10:12:21.385Z,15.13
2018-11-12T10:14:52.896Z,15.28
2018-11-12T10:17:25.411Z,15.19
2018-11-12T10:19:54.524Z,15.47
2018-11-12T10:22:26.385Z,15.46
2018-11-12T10:24:58.187Z,15.57
2018-11-12T10:27:30.025Z,15.71
2018-11-12T10:30:01.996Z,15.90
2018-11-12T10:32:33.883Z,15.73
2018-11-12T10:35:05.990Z,15.84
2018-11-12T10:37:38.343Z,16.08
2018-11-12T10:40:17.289Z,16.09
2018-11-12T10:42:49.380Z,15.99
2018-11-12T10:45:31.083Z,15.97
2018-11-12T10:48:03.076Z,16.07
2018-11-12T10:50:35.006Z,15.94
2018-11-12T10:53:07.217Z,16.21
2018-11-12T10:55:39.148Z,16.20
2018-11-12T10:58:10.954Z,16.21
2018-11-12T11:01:00.381Z,16.16
2018-11-12T11:03:54.183Z,16.08
2018-11-12T11:06:28.247Z,15.98
2018-11-12T11:09:00.131Z,16.13
2018-11-12T11:11:31.944Z,16.15
2018-11-12T11:14:03.815Z,16.25
2018-11-12T11:16:35.640Z,16.36
2018-11-12T11:19:08.182Z,16.36
2018-11-12T11:21:40.001Z,16.25
2018-11-12T11:24:11.877Z,16.29
2018-11-12T11:26:43.752Z,16.61
2018-11-12T11:29:15.663Z,16.71
2018-11-12T11:31:47.546Z,16.71
2018-11-12T11:34:19.466Z,16.51
2018-11-12T11:36:51.278Z,16.36
2018-11-12T11:39:23.068Z,16.60
2018-11-12T11:41:54.891Z,16.55
2018-11-12T11:44:26.753Z,16.61
2018-11-12T11:46:58.567Z,16.48
2018-11-12T11:49:30.598Z,16.72
2018-11-12T11:52:02.547Z,16.69
2018-11-12T11:54:34.466Z,16.75
2018-11-12T11:57:06.587Z,16.82
2018-11-12T11:59:38.435Z,16.72
2018-11-12T12:02:10.385Z,16.89
2018-11-12T12:04:42.204Z,16.96
2018-11-12T12:07:14.018Z,16.86
2018-11-12T12:09:46.021Z,17.01
2018-11-12T12:12:17.776Z,16.92
2018-11-12T12:14:49.681Z,16.90
2018-11-12T12:17:21.537Z,16.92
2018-11-12T12:19:53.448Z,17.06
2018-11-12T12:22:25.266Z,17.19
2018-11-12T12:24:57.267Z,17.28
2018-11-12T12:27:29.019Z,17.05
2018-11-12T12:30:00.936Z,17.20
2018-11-12T12:32:32.959Z,17.11
2018-11-12T12:35:04.823Z,17.17
2018-11-12T12:37:36.849Z,17.37
2018-11-12T12:40:11.488Z,17.42
2018-11-12T12:42:43.336Z,17.48
2018-11-12T12:45:16.752Z,17.33
2018-11-12T12:47:48.994Z,17.35
2018-11-12T12:50:21.476Z,17.43
2018-11-12T12:52:53.321Z,17.56
2018-11-12T12:55:27.458Z,17.58
2018-11-12T12:57:59.273Z,17.54
2018-11-12T13:00:31.163Z,17.47
2018-11-12T13:03:03.018Z,17.55
2018-11-12T13:05:34.930Z,17.64
2018-11-12T13:08:06.902Z,17.77
2018-11-12T13:10:38.827Z,17.86
2018-11-12T13:13:11.693Z,17.78
2018-11-12T13:15:43.623Z,17.83
2018-11-12T13:18:15.489Z,17.72
2018-11-12T13:20:47.453Z,17.68
2018-11-12T13:23:21.723Z,17.68
2018-11-12T13:25:53.577Z,17.85
2018-11-12T13:28:25.518Z,17.98
2018-11-12T13:30:57.356Z,17.95
2018-11-12T13:33:29.197Z,17.93
2018-11-12T13:36:01.177Z,18.05
2018-11-12T13:38:33.092Z,18.03
2018-11-12T13:41:04.937Z,17.87
2018-11-12T13:43:36.881Z,17.96
2018-11-12T13:46:08.897Z,18.02
2018-11-12T13:48:46.871Z,18.13
2018-11-12T13:51:19.512Z,18.19
2018-11-12T13:53:51.435Z,18.01
2018-11-12T13:56:23.593Z,18.08
2018-11-12T13:58:55.539Z,18.07
2018-11-12T14:01:27.316Z,18.12
2018-11-12T14:03:59.160Z,18.20
2018-11-12T14:06:31.094Z,18.05
2018-11-12T14:09:02.898Z,18.10
2018-11-12T14:11:34.801Z,18.26
2018-11-12T14:14:07.301Z,18.19
2018-11-12T14:16:38.943Z,18.04
2018-11-12T14:19:13.291Z,17.78
2018-11-12T14:21:45.300Z,17.56
2018-11-12T14:24:17.133Z,17.20
2018-11-12T14:26:49.091Z,17.09
2018-11-12T14:29:21.062Z,16.88
2018-11-12T14:31:52.929Z,17.04
2018-11-12T14:34:24.773Z,16.68
2018-11-12T14:36:56.678Z,16.58
2018-11-12T14:39:28.577Z,16.86
2018-11-12T14:42:00.403Z,16.83
2018-11-12T14:44:32.257Z,16.65
2018-11-12T14:47:04.172Z,16.50
2018-11-12T14:49:36.090Z,16.49
2018-11-12T14:52:08.033Z,16.30
2018-11-12T14:54:39.912Z,16.28
2018-11-12T14:57:11.837Z,16.37
2018-11-12T14:59:43.752Z,15.94
2018-11-12T15:02:15.635Z,15.85
2018-11-12T15:04:47.503Z,15.82
2018-11-12T15:07:19.464Z,15.99
2018-11-12T15:09:51.491Z,15.97
2018-11-12T15:12:23.424Z,15.89
2018-11-12T15:14:55.357Z,15.88
2018-11-12T15:17:29.835Z,15.75
2018-11-12T15:20:01.726Z,15.59
2018-11-12T15:22:33.648Z,15.67
2018-11-12T15:25:05.947Z,15.60
2018-11-12T15:27:37.846Z,15.54
2018-11-12T15:30:14.135Z,15.42
2018-11-12T15:32:46.940Z,15.32
2018-11-12T15:35:18.805Z,15.33
2018-11-12T15:37:51.145Z,15.07
2018-11-12T15:40:22.924Z,15.02
2018-11-12T15:42:54.811Z,14.85
2018-11-12T15:45:26.901Z,14.68
2018-11-12T15:47:58.762Z,14.55
2018-11-12T15:50:36.223Z,14.50
2018-11-12T15:53:08.090Z,14.17
2018-11-12T15:55:39.969Z,14.09
2018-11-12T15:58:12.076Z,13.93
2018-11-12T16:00:44.012Z,14.05
2018-11-12T16:03:15.861Z,13.84
2018-11-12T16:05:47.804Z,13.87
2018-11-12T16:08:19.816Z,13.70
2018-11-12T16:10:51.666Z,13.54
2018-11-12T16:13:23.420Z,13.44
2018-11-12T16:15:55.269Z,13.24
2018-11-12T16:18:27.128Z,13.09
2018-11-12T16:20:59.004Z,13.18
2018-11-12T16:23:30.967Z,13.16
2018-11-12T16:26:02.804Z,13.02
2018-11-12T16:28:34.677Z,12.81
2018-11-12T16:31:06.944Z,12.80
2018-11-12T16:33:41.041Z,13.00
2018-11-12T16:36:12.949Z,12.97
2018-11-12T16:38:44.954Z,12.68
2018-11-12T16:41:16.820Z,12.56
2018-11-12T16:43:48.786Z,12.30
2018-11-12T16:46:20.703Z,12.18
2018-11-12T16:48:52.684Z,12.09
2018-11-12T16:51:24.672Z,12.11
2018-11-12T16:53:56.478Z,12.02
2018-11-12T16:56:28.325Z,12.01
2018-11-12T16:59:00.258Z,11.87
2018-11-12T17:01:32.183Z,11.78
2018-11-12T17:04:03.894Z,11.59
2018-11-12T17:06:35.903Z,11.58
2018-11-12T17:09:14.255Z,11.58
2018-11-12T17:11:46.142Z,11.48
2018-11-12T17:14:18.034Z,11.48
2018-11-12T17:16:49.882Z,11.39
2018-11-12T17:19:21.826Z,11.35
2018-11-12T17:21:53.745Z,11.23
2018-11-12T17:24:25.730Z,11.18
2018-11-12T17:27:00.283Z,11.08
2018-11-12T17:29:32.213Z,11.09
2018-11-12T17:32:04.071Z,10.96
2018-11-12T17:34:35.892Z,10.91
2018-11-12T17:37:07.965Z,10.89
2018-11-12T17:39:39.789Z,10.99
2018-11-12T17:42:11.693Z,10.85
2018-11-12T17:44:43.517Z,10.73
2018-11-12T17:47:15.392Z,10.65
2018-11-12T17:49:47.314Z,10.52
2018-11-12T17:52:19.241Z,10.60
2018-11-12T17:54:51.108Z,10.60
2018-11-12T17:57:23.032Z,10.55
2018-11-12T17:59:54.935Z,10.62
2018-11-12T18:02:26.849Z,10.52
2018-11-12T18:04:58.762Z,10.30
2018-11-12T18:07:30.692Z,10.14
2018-11-12T18:10:02.449Z,10.33
2018-11-12T18:12:34.417Z,10.35
2018-11-12T18:15:07.759Z,10.12
2018-11-12T18:17:39.644Z,9.84
2018-11-12T18:20:17.424Z,10.08
2018-11-12T18:22:49.844Z,9.97
2018-11-12T18:25:21.749Z,9.95
2018-11-12T18:27:54.375Z,9.90
2018-11-12T18:30:27.802Z,9.88
2018-11-12T18:33:00.030Z,9.93
2018-11-12T18:35:31.900Z,9.73
2018-11-12T18:38:03.912Z,9.74
2018-11-12T18:40:35.592Z,9.59
2018-11-12T18:43:07.907Z,9.56
2018-11-12T18:45:39.754Z,9.32
2018-11-12T18:48:11.619Z,9.48
2018-11-12T18:50:43.503Z,9.47
2018-11-12T18:53:15.381Z,9.48
2018-11-12T18:55:47.357Z,9.09
2018-11-12T18:58:19.252Z,9.24
2018-11-12T19:00:51.125Z,9.14
2018-11-12T19:03:23.068Z,9.33
2018-11-12T19:05:55.085Z,9.32
2018-11-12T19:08:26.944Z,9.25
2018-11-12T19:10:58.916Z,9.29
2018-11-12T19:13:32.160Z,9.31
2018-11-12T19:16:04.191Z,9.25
2018-11-12T19:18:36.044Z,9.17
2018-11-12T19:21:08.248Z,9.20
2018-11-12T19:23:40.047Z,9.22
2018-11-12T19:26:11.841Z,9.00
2018-11-12T19:28:43.670Z,8.85
2018-11-12T19:31:15.563Z,8.91
2018-11-12T19:33:47.377Z,8.97
2018-11-12T19:36:19.352Z,8.93
2018-11-12T19:38:51.203Z,8.96
2018-11-12T19:41:23.052Z,9.02
2018-11-12T19:43:54.896Z,8.95
2018-11-12T19:46:26.724Z,8.97
2018-11-12T19:48:58.556Z,8.93
2018-11-12T19:51:30.504Z,8.83
2018-11-12T19:54:02.247Z,8.68
2018-11-12T19:56:34.075Z,8.90
2018-11-12T19:59:06.246Z,8.79
2018-11-12T20:01:38.029Z,8.83
2018-11-12T20:04:09.899Z,8.73
2018-11-12T20:06:41.785Z,8.70
2018-11-12T20:09:13.628Z,8.62
2018-11-12T20:11:45.577Z,8.70
2018-11-12T20:14:17.504Z,8.66
2018-11-12T20:16:49.339Z,8.59
2018-11-12T20:19:21.175Z,8.72
2018-11-12T20:21:53.098Z,8.64
2018-11-12T20:24:24.936Z,8.51
2018-11-12T20:26:56.845Z,8.59
2018-11-12T20:29:29.230Z,8.60
2018-11-12T20:32:01.121Z,8.63
2018-11-12T20:34:32.946Z,8.59
2018-11-12T20:37:04.750Z,8.64
2018-11-12T20:39:36.618Z,8.54
2018-11-12T20:42:08.817Z,8.50
2018-11-12T20:44:40.673Z,8.50
2018-11-12T20:47:12.479Z,8.49
2018-11-12T20:49:44.298Z,8.36
2018-11-12T20:52:16.243Z,8.31
2018-11-12T20:54:47.998Z,8.17
2018-11-12T20:57:19.824Z,8.09
2018-11-12T20:59:53.791Z,7.89
2018-11-12T21:02:25.653Z,7.70
2018-11-12T21:04:57.472Z,7.91
2018-11-12T21:07:29.287Z,7.87
2018-11-12T21:10:01.121Z,7.73
2018-11-12T21:12:32.967Z,7.82
2018-11-12T21:15:07.822Z,7.74
2018-11-12T21:17:36.700Z,7.71
2018-11-12T21:20:10.725Z,7.61
2018-11-12T21:22:42.697Z,7.56
2018-11-12T21:25:15.867Z,7.45
2018-11-12T21:27:47.763Z,7.35
2018-11-12T21:30:21.126Z,7.41
2018-11-12T21:32:52.974Z,7.38
2018-11-12T21:35:24.853Z,7.32
2018-11-12T21:37:58.107Z,7.32
2018-11-12T21:40:30.208Z,7.31
2018-11-12T21:43:02.123Z,7.26
2018-11-12T21:45:33.855Z,7.37
2018-11-12T21:48:05.902Z,7.43
2018-11-12T21:50:37.699Z,7.31
2018-11-12T21:53:09.512Z,7.42
2018-11-12T21:55:41.333Z,7.42
2018-11-12T21:58:13.153Z,7.43
2018-11-12T22:00:45.005Z,7.32
2018-11-12T22:03:16.846Z,7.25
2018-11-12T22:05:48.669Z,7.35
2018-11-12T22:08:20.557Z,7.38
2018-11-12T22:10:52.415Z,7.41
2018-11-12T22:13:24.243Z,7.45
2018-11-12T22:15:56.028Z,7.54
2018-11-12T22:18:27.866Z,7.50
2018-11-12T22:20:59.685Z,7.55
2018-11-12T22:23:31.547Z,7.43
2018-11-12T22:26:03.372Z,7.42
2018-11-12T22:28:35.208Z,7.40
2018-11-12T22:31:07.194Z,7.35
2018-11-12T22:33:39.027Z,7.45
2018-11-12T22:36:10.847Z,7.43
2018-11-12T22:38:42.651Z,7.44
2018-11-12T22:41:14.461Z,7.52
2018-11-12T22:43:46.340Z,7.50
2018-11-12T22:46:18.174Z,7.64
2018-11-12T22:48:49.997Z,7.72
2018-11-12T22:51:21.804Z,7.66
2018-11-12T22:53:53.735Z,7.75
2018-11-12T22:56:25.471Z,7.81
2018-11-12T22:58:57.288Z,7.86
2018-11-12T23:01:29.131Z,7.80
2018-11-12T23:04:01.020Z,7.86
2018-11-12T23:06:32.812Z,7.84
2018-11-12T23:09:14.124Z,7.87
2018-11-12T23:11:45.936Z,7.92
2018-11-12T23:14:17.792Z,7.91
2018-11-12T23:16:49.621Z,8.01
2018-11-12T23:19:21.576Z,7.96
2018-11-12T23:21:53.288Z,7.87
2018-11-12T23:24:25.228Z,7.91
2018-11-12T23:26:57.451Z,7.92
2018-11-12T23:29:29.267Z,7.95
2018-11-12T23:32:01.092Z,7.91
2018-11-12T23:34:32.903Z,7.92
2018-11-12T23:37:04.698Z,7.95
2018-11-12T23:39:36.527Z,7.98
2018-11-12T23:42:08.543Z,8.00
2018-11-12T23:44:40.342Z,8.05
2018-11-12T23:47:12.137Z,8.03
2018-11-12T23:49:43.959Z,7.98
2018-11-12T23:52:15.777Z,7.92
2018-11-12T23:54:47.601Z,7.92
2018-11-12T23:57:19.449Z,7.93
2018-11-12T23:59:51.245Z,7.90
